Terminal Aerodrome Forecast
Issued by NWS

Current Version | Previous Version | Text Only | Print | Product List | Glossary Off
Versions: 1 2 3 4 5 6 7 8 9 10 11 12 13 14 15 16 17

452
FTUS42 KMHX 271735
TAFPGV
TAF
KPGV 271735Z 2718/2818 VRB04KT P6SM FEW040
     FM280300 18006KT P6SM BKN050
     FM280600 VRB04KT P6SM SCT008 BKN030
     FM280700 VRB04KT P6SM SCT008 BKN015
     FM281300 VRB04KT P6SM OVC070
     FM281600 23005KT 5SM SHRA VCTS OVC070CB
      AMD LTD TO CLD VIS AND WIND=

USA.gov is the U.S. government's official web portal to all federal, state and local government web resources and services.